Time;durP1;ratioP1;P1;durP2;ratioP2;P2;SDS_P1;SDS_P2;PMS_P1;PMS_P2;Temp;Humidity;BMP_temperature;BMP_pressure;BME280_temperature;BME280_humidity;BME280_pressure;Samples;Min_cycle;Max_cycle;Signal;HPM_P1;HPM_P2
2023/01/27 00:00:34;;;;;;;47.60;14.43;;;;;;;0.93;74.60;100314.44;6088308;23;20038;-85
2023/01/27 00:03:01;;;;;;;55.63;15.80;;;;;;;0.92;74.73;100318.00;6041459;23;20034;-85
2023/01/27 00:05:28;;;;;;;45.75;15.80;;;;;;;0.88;75.17;100311.19;6089516;23;20398;-84
2023/01/27 00:07:57;;;;;;;48.38;16.55;;;;;;;0.89;74.97;100319.88;6064682;23;20186;-84
2023/01/27 00:10:25;;;;;;;54.78;15.48;;;;;;;0.90;74.69;100306.75;6065627;23;20029;-85
2023/01/27 00:15:37;;;;;;;54.42;15.38;;;;;;;0.89;75.07;100314.63;6091858;23;20113;-87
2023/01/27 00:18:04;;;;;;;43.58;14.07;;;;;;;0.91;74.98;100304.97;6090242;23;20034;-86
2023/01/27 00:26:07;;;;;;;46.40;14.65;;;;;;;0.94;74.77;100310.94;6018431;23;20090;-87
2023/01/27 00:28:37;;;;;;;47.60;14.77;;;;;;;0.91;75.15;100312.81;6057363;23;20033;-87
2023/01/27 00:31:06;;;;;;;45.40;13.80;;;;;;;0.90;74.91;100311.97;6064890;23;20340;-87
2023/01/27 00:33:33;;;;;;;51.85;14.80;;;;;;;0.90;75.22;100309.34;6066624;23;20465;-86
2023/01/27 00:36:05;;;;;;;45.60;14.32;;;;;;;0.93;75.29;100316.22;6043152;23;20022;-86
2023/01/27 00:38:39;;;;;;;50.78;14.82;;;;;;;0.91;75.59;100310.19;6067160;23;20037;-87
2023/01/27 00:41:19;;;;;;;50.20;13.40;;;;;;;0.92;75.68;100314.53;6019562;23;20350;-88
2023/01/27 00:43:46;;;;;;;44.83;13.77;;;;;;;0.95;75.68;100317.00;6090531;23;20573;-87
2023/01/27 00:46:14;;;;;;;48.03;14.23;;;;;;;0.94;76.05;100315.28;6066566;23;20021;-87
2023/01/27 00:48:41;;;;;;;47.85;14.50;;;;;;;0.93;75.92;100311.00;6090097;23;20080;-87
2023/01/27 00:51:08;;;;;;;60.70;15.95;;;;;;;0.94;76.17;100320.53;6042715;23;20141;-85
2023/01/27 00:53:35;;;;;;;48.60;14.32;;;;;;;0.93;76.22;100314.44;6042383;23;20048;-87
2023/01/27 00:56:02;;;;;;;53.05;15.25;;;;;;;0.94;76.17;100310.94;6066624;23;20018;-87
2023/01/27 00:58:29;;;;;;;56.67;15.55;;;;;;;0.94;76.11;100318.78;6089942;23;20037;-86
2023/01/27 01:01:01;;;;;;;53.72;16.27;;;;;;;0.92;76.64;100307.53;6090517;23;20402;-88
2023/01/27 01:03:31;;;;;;;55.28;16.20;;;;;;;0.93;76.54;100317.06;6090839;23;20093;-88
2023/01/27 01:05:59;;;;;;;53.05;15.02;;;;;;;0.92;76.93;100309.31;6067052;23;20470;-87
2023/01/27 01:08:29;;;;;;;53.03;15.13;;;;;;;0.91;77.29;100308.44;6114572;23;20036;-87
2023/01/27 01:10:56;;;;;;;47.13;16.33;;;;;;;0.95;77.01;100304.78;6089755;23;20056;-87
2023/01/27 01:13:26;;;;;;;49.22;15.50;;;;;;;0.94;77.24;100310.94;6066427;23;20093;-87
2023/01/27 01:15:54;;;;;;;55.60;15.98;;;;;;;0.90;77.69;100314.59;6091220;23;20022;-87
2023/01/27 01:18:20;;;;;;;54.95;15.32;;;;;;;0.93;77.23;100324.91;6042264;23;20390;-88
2023/01/27 01:20:47;;;;;;;51.58;16.33;;;;;;;0.88;77.38;100316.41;6066013;23;20105;-88
2023/01/27 01:23:15;;;;;;;61.03;17.23;;;;;;;0.92;77.07;100317.16;6090442;23;20026;-87
2023/01/27 01:25:42;;;;;;;56.45;17.27;;;;;;;0.93;77.30;100317.06;6065837;23;20024;-85
2023/01/27 01:28:09;;;;;;;56.95;16.52;;;;;;;0.94;77.52;100317.91;6089420;23;20328;-87
2023/01/27 01:30:37;;;;;;;58.15;18.27;;;;;;;0.92;77.62;100318.00;6066481;23;20101;-87
2023/01/27 01:33:04;;;;;;;61.28;17.13;;;;;;;0.91;78.19;100318.88;6090707;23;20033;-87
2023/01/27 01:35:36;;;;;;;53.70;17.15;;;;;;;0.85;78.68;100308.69;6088921;23;20080;-87
2023/01/27 01:38:03;;;;;;;55.13;17.13;;;;;;;0.89;78.33;100310.28;6065178;23;20123;-87
2023/01/27 01:40:30;;;;;;;57.95;15.68;;;;;;;0.82;79.13;100316.66;6065289;23;20097;-87
2023/01/27 01:42:59;;;;;;;64.93;17.00;;;;;;;0.81;79.27;100307.94;6088787;23;20757;-87
2023/01/27 01:45:35;;;;;;;55.58;18.02;;;;;;;0.80;79.99;100306.25;6065731;23;20417;-87
2023/01/27 01:48:06;;;;;;;54.45;17.00;;;;;;;0.82;79.93;100304.44;6114062;23;20070;-86
2023/01/27 01:50:33;;;;;;;58.70;17.35;;;;;;;0.85;80.14;100306.06;6066392;23;20081;-85
2023/01/27 01:53:01;;;;;;;60.83;18.55;;;;;;;0.88;79.78;100305.09;6042095;23;20022;-87
2023/01/27 01:55:29;;;;;;;63.25;17.38;;;;;;;0.87;80.24;100301.66;6064464;23;20022;-87
2023/01/27 01:57:56;;;;;;;65.20;17.38;;;;;;;0.83;80.60;100297.44;6087972;23;21025;-87
2023/01/27 02:00:23;;;;;;;58.55;17.38;;;;;;;0.90;80.02;100309.34;6066260;23;20029;-87
2023/01/27 02:02:50;;;;;;;68.38;17.95;;;;;;;0.81;80.74;100301.88;6113441;23;20079;-88
2023/01/27 02:05:24;;;;;;;56.05;16.50;;;;;;;0.83;81.11;100305.28;6065881;23;20026;-86
2023/01/27 02:08:02;;;;;;;56.58;17.77;;;;;;;0.77;81.65;100300.31;6040788;23;20021;-87
2023/01/27 02:10:28;;;;;;;54.92;14.95;;;;;;;0.81;81.51;100300.09;6087733;23;20052;-87
2023/01/27 02:12:55;;;;;;;56.38;16.25;;;;;;;0.82;81.78;100308.81;6113803;23;20104;-88
2023/01/27 02:15:22;;;;;;;55.97;16.63;;;;;;;0.85;81.17;100308.69;6065771;23;20117;-87
2023/01/27 02:17:51;;;;;;;63.78;17.05;;;;;;;0.88;80.96;100305.09;6067009;23;20163;-87
2023/01/27 02:20:34;;;;;;;56.80;17.77;;;;;;;0.83;81.38;100307.91;6065897;23;20073;-87
2023/01/27 02:23:04;;;;;;;55.20;16.63;;;;;;;0.87;80.69;100304.25;6040917;23;20017;-87
2023/01/27 02:25:33;;;;;;;61.58;17.92;;;;;;;0.88;80.98;100305.94;6113548;23;20387;-86
2023/01/27 02:28:05;;;;;;;62.25;17.38;;;;;;;0.82;81.56;100295.75;6089060;23;20029;-87
2023/01/27 02:30:32;;;;;;;63.00;18.08;;;;;;;0.82;81.45;100298.38;6064875;23;20026;-86
2023/01/27 02:32:59;;;;;;;59.90;17.48;;;;;;;0.87;80.89;100293.81;6090008;23;20022;-87
2023/01/27 02:35:35;;;;;;;64.28;17.23;;;;;;;0.80;81.74;100295.81;6065543;23;20513;-87
2023/01/27 02:38:03;;;;;;;63.63;16.60;;;;;;;0.87;80.95;100293.81;6064326;23;20048;-87
2023/01/27 02:40:31;;;;;;;67.80;17.17;;;;;;;0.90;80.24;100291.06;6089476;23;20018;-87
2023/01/27 02:42:58;;;;;;;55.70;16.13;;;;;;;0.94;80.35;100291.75;6066110;23;20025;-87
2023/01/27 02:45:27;;;;;;;62.22;16.67;;;;;;;0.93;80.24;100292.69;6089312;23;20034;-87
2023/01/27 02:47:54;;;;;;;53.50;16.42;;;;;;;0.92;80.42;100291.00;6112999;23;20034;-86
2023/01/27 02:50:21;;;;;;;56.92;15.90;;;;;;;0.91;80.96;100287.50;6088770;23;20018;-87
2023/01/27 02:52:48;;;;;;;55.13;15.65;;;;;;;0.92;80.87;100288.38;6065812;23;20026;-87
2023/01/27 02:55:15;;;;;;;57.75;16.58;;;;;;;0.90;80.70;100296.28;6065160;23;20363;-87
2023/01/27 02:57:42;;;;;;;55.92;15.60;;;;;;;0.89;81.02;100293.72;6114248;23;20041;-87
2023/01/27 03:00:35;;;;;;;56.40;16.02;;;;;;;0.93;80.74;100288.31;5968614;23;20036;-87
2023/01/27 03:03:02;;;;;;;60.97;16.63;;;;;;;0.93;80.96;100292.69;6061779;23;20022;-87
2023/01/27 03:05:30;;;;;;;52.38;16.42;;;;;;;0.95;80.46;100289.09;6036488;23;20042;-87
2023/01/27 03:07:57;;;;;;;57.38;17.33;;;;;;;0.93;80.74;100280.47;6061088;23;20065;-87
2023/01/27 03:10:24;;;;;;;61.70;17.77;;;;;;;0.92;80.88;100286.63;6038498;23;20021;-88
2023/01/27 03:12:50;;;;;;;62.83;18.30;;;;;;;0.95;80.59;100289.09;6065658;23;20029;-88
2023/01/27 03:18:10;;;;;;;66.65;17.92;;;;;;;0.96;80.47;100293.41;6045404;23;20709;-87
2023/01/27 03:20:38;;;;;;;56.80;16.08;;;;;;;0.94;80.57;100291.75;6036777;23;20414;-87
2023/01/27 03:23:06;;;;;;;52.60;15.38;;;;;;;0.94;80.33;100303.09;6042034;23;20014;-87
2023/01/27 03:25:35;;;;;;;59.42;16.25;;;;;;;0.96;80.42;100295.16;6037774;23;20029;-87
2023/01/27 03:28:02;;;;;;;60.42;15.70;;;;;;;0.97;80.18;100296.88;6054547;23;20021;-87
2023/01/27 03:30:39;;;;;;;55.38;16.23;;;;;;;0.95;80.41;100304.78;6040675;23;20027;-87
2023/01/27 03:33:17;;;;;;;54.10;15.60;;;;;;;0.94;80.52;100305.72;5992684;23;20149;-87
2023/01/27 03:47:11;;;;;;;50.72;14.50;;;;;;;0.94;79.77;100313.56;5969356;23;20022;-86
2023/01/27 03:49:37;;;;;;;58.25;16.50;;;;;;;0.97;79.98;100310.81;6015180;23;20034;-87
2023/01/27 03:52:04;;;;;;;57.42;17.10;;;;;;;0.98;79.86;100317.72;6037849;23;20026;-87
2023/01/27 03:54:31;;;;;;;60.75;18.20;;;;;;;0.96;79.94;100314.31;6014423;23;20026;-87
2023/01/27 03:57:04;;;;;;;61.17;16.92;;;;;;;0.93;80.26;100317.06;6038949;23;20014;-87
2023/01/27 03:59:33;;;;;;;57.17;16.90;;;;;;;0.95;79.80;100325.69;5994500;23;20097;-86
2023/01/27 04:07:35;;;;;;;59.05;18.70;;;;;;;0.97;79.96;100321.28;6013641;23;22598;-88
2023/01/27 04:10:03;;;;;;;53.35;16.23;;;;;;;0.97;80.20;100321.28;5957126;23;20046;-88
2023/01/27 04:12:31;;;;;;;58.33;17.27;;;;;;;1.00;80.01;100323.75;5979876;23;20491;-87
2023/01/27 04:14:57;;;;;;;53.35;17.08;;;;;;;0.98;79.86;100322.13;5956548;23;20535;-88
2023/01/27 04:17:24;;;;;;;53.00;18.23;;;;;;;0.99;79.70;100315.97;6003085;23;20087;-87
2023/01/27 04:19:51;;;;;;;63.67;17.08;;;;;;;0.94;80.30;100321.41;5933810;23;20543;-88
2023/01/27 04:22:18;;;;;;;51.53;15.75;;;;;;;0.97;80.25;100326.50;5956781;23;20023;-89
2023/01/27 04:24:44;;;;;;;63.78;16.60;;;;;;;0.97;80.10;100325.66;5952157;23;20024;-85
2023/01/27 04:27:13;;;;;;;53.42;15.73;;;;;;;0.98;79.69;100322.97;6002728;23;20756;-88
2023/01/27 04:29:41;;;;;;;58.35;17.73;;;;;;;0.98;79.34;100322.97;6003246;23;20460;-87
2023/01/27 04:32:10;;;;;;;56.10;17.17;;;;;;;0.97;79.39;100331.72;6003021;23;20123;-86
2023/01/27 04:34:37;;;;;;;68.82;18.77;;;;;;;1.01;79.14;100338.50;5979210;23;20023;-87
2023/01/27 04:37:06;;;;;;;53.55;16.00;;;;;;;0.94;79.29;100342.31;6003005;23;20379;-86
2023/01/27 04:39:34;;;;;;;54.05;14.60;;;;;;;0.93;78.26;100340.59;6033137;23;20395;-88
2023/01/27 04:42:00;;;;;;;49.40;14.82;;;;;;;0.87;78.43;100338.25;6064957;23;20502;-85
2023/01/27 04:44:28;;;;;;;49.70;15.52;;;;;;;0.89;77.92;100344.28;6079510;23;20030;-85
2023/01/27 04:46:55;;;;;;;56.88;15.93;;;;;;;0.92;77.95;100336.28;6056195;23;20022;-85
2023/01/27 04:49:22;;;;;;;30.80;10.10;;;;;;;0.98;76.89;100335.19;6057157;23;20030;-85
2023/01/27 04:51:49;;;;;;;36.58;12.32;;;;;;;0.97;76.59;100331.72;6057728;23;20025;-85
2023/01/27 04:54:16;;;;;;;44.33;13.68;;;;;;;0.91;77.15;100334.56;6065247;23;20391;-87
2023/01/27 04:56:55;;;;;;;38.67;12.63;;;;;;;0.87;76.77;100338.25;6089175;23;20041;-86
2023/01/27 04:59:21;;;;;;;39.85;11.73;;;;;;;0.96;77.00;100330.00;6043454;23;20040;-86
2023/01/27 05:01:49;;;;;;;37.55;11.45;;;;;;;0.97;76.57;100334.34;6112391;23;20029;-84
2023/01/27 05:04:15;;;;;;;32.05;10.45;;;;;;;0.87;76.15;100338.25;6066999;23;20492;-86
2023/01/27 05:06:42;;;;;;;36.60;11.23;;;;;;;0.95;76.09;100344.00;6089744;23;20033;-85
2023/01/27 05:09:09;;;;;;;21.58;8.50;;;;;;;0.84;75.36;100347.06;6066560;23;20454;-87
2023/01/27 05:11:35;;;;;;;29.77;10.40;;;;;;;0.86;75.89;100339.97;6056811;23;20351;-86
2023/01/27 05:14:02;;;;;;;30.00;9.82;;;;;;;0.90;75.87;100347.72;6059069;23;20037;-86
2023/01/27 05:16:29;;;;;;;18.92;6.80;;;;;;;0.84;74.60;100344.44;6009070;23;20097;-86
2023/01/27 05:18:56;;;;;;;20.75;6.82;;;;;;;0.74;74.09;100342.25;6057500;23;20018;-87
2023/01/27 05:21:27;;;;;;;21.08;6.68;;;;;;;0.72;73.89;100342.31;6061056;23;20026;-86
2023/01/27 05:23:53;;;;;;;25.60;7.85;;;;;;;0.78;74.74;100351.66;6037703;23;20022;-85
2023/01/27 05:26:22;;;;;;;16.05;7.22;;;;;;;0.85;74.27;100353.13;6056465;23;20082;-88
2023/01/27 05:28:50;;;;;;;26.88;6.97;;;;;;;0.79;74.57;100361.22;6056406;23;20026;-86
2023/01/27 05:31:26;;;;;;;23.10;7.97;;;;;;;0.74;74.00;100358.81;6036485;23;20022;-86
2023/01/27 05:33:54;;;;;;;15.82;6.28;;;;;;;0.70;74.07;100354.59;5991017;23;20050;-86
2023/01/27 05:36:22;;;;;;;15.27;6.35;;;;;;;0.73;73.64;100354.47;6037022;23;20022;-86
2023/01/27 05:38:49;;;;;;;18.20;7.05;;;;;;;0.72;73.28;100344.94;6056168;23;20478;-86
2023/01/27 05:41:17;;;;;;;19.25;5.63;;;;;;;0.72;73.56;100350.16;6056113;23;20090;-85
2023/01/27 05:43:45;;;;;;;21.90;6.30;;;;;;;0.78;73.41;100349.06;6032016;23;20034;-85
2023/01/27 05:46:20;;;;;;;15.75;6.05;;;;;;;0.80;73.05;100347.25;6063415;23;20687;-86
2023/01/27 05:48:49;;;;;;;16.65;6.28;;;;;;;0.74;72.73;100340.50;6037999;23;20029;-86
2023/01/27 05:51:18;;;;;;;36.28;8.02;;;;;;;0.79;73.30;100343.78;6079727;23;20450;-86
2023/01/27 05:53:45;;;;;;;19.58;5.63;;;;;;;0.88;73.44;100346.94;6039067;23;20053;-84
2023/01/27 05:56:14;;;;;;;19.92;7.68;;;;;;;0.82;73.21;100348.03;6064345;23;20022;-86
2023/01/27 05:58:41;;;;;;;19.27;6.63;;;;;;;0.86;73.18;100346.97;6055985;23;20018;-86
2023/01/27 06:01:13;;;;;;;16.05;6.80;;;;;;;0.85;73.26;100348.75;6058120;23;20018;-85
2023/01/27 06:03:40;;;;;;;17.07;6.43;;;;;;;0.85;73.35;100345.28;6051702;23;20024;-86
2023/01/27 06:06:08;;;;;;;17.67;6.60;;;;;;;0.83;73.06;100349.72;6032703;23;20052;-85
2023/01/27 06:08:35;;;;;;;20.77;6.82;;;;;;;0.86;73.27;100350.44;6037826;23;20153;-86
2023/01/27 06:11:03;;;;;;;18.77;6.43;;;;;;;0.89;73.34;100346.88;6062356;23;20077;-86
2023/01/27 06:13:34;;;;;;;21.45;7.30;;;;;;;0.95;73.39;100359.69;6078757;23;20037;-85
2023/01/27 06:16:02;;;;;;;18.35;6.63;;;;;;;0.92;72.81;100362.44;6063576;23;20019;-86
2023/01/27 06:18:29;;;;;;;20.55;7.00;;;;;;;0.94;72.71;100358.00;6055985;23;20030;-86
2023/01/27 06:21:00;;;;;;;23.02;7.18;;;;;;;0.94;72.57;100363.25;6040275;23;20040;-86
2023/01/27 06:23:27;;;;;;;19.52;6.68;;;;;;;0.98;72.82;100372.66;6036550;23;20421;-85
2023/01/27 06:25:55;;;;;;;19.10;6.10;;;;;;;0.91;73.04;100368.56;6079635;23;20022;-87
2023/01/27 06:28:22;;;;;;;18.45;6.25;;;;;;;0.91;72.65;100359.88;6012284;23;20030;-86
2023/01/27 06:30:55;;;;;;;19.45;7.00;;;;;;;0.81;72.86;100362.00;6039546;23;20022;-82
2023/01/27 06:33:22;;;;;;;17.48;6.57;;;;;;;0.81;72.96;100356.78;6036057;23;20136;-82
2023/01/27 06:35:49;;;;;;;19.10;7.53;;;;;;;0.81;72.90;100360.22;6056708;23;20037;-82
2023/01/27 06:38:16;;;;;;;17.52;5.82;;;;;;;0.75;72.19;100368.31;6055547;23;20022;-83
2023/01/27 06:40:43;;;;;;;17.98;6.90;;;;;;;0.76;72.52;100361.34;6078853;23;20022;-81
2023/01/27 06:43:12;;;;;;;16.50;6.18;;;;;;;0.73;72.24;100372.75;6032363;23;20014;-81
2023/01/27 06:45:39;;;;;;;15.57;5.55;;;;;;;0.80;72.92;100369.00;6042244;23;20029;-81
2023/01/27 06:48:07;;;;;;;17.80;5.38;;;;;;;0.89;73.17;100377.38;6078049;23;20025;-81
2023/01/27 06:50:34;;;;;;;15.27;5.55;;;;;;;0.88;73.37;100384.38;6079523;23;20034;-81
2023/01/27 06:53:03;;;;;;;19.92;5.70;;;;;;;0.85;73.15;100387.13;6056585;23;20021;-81
2023/01/27 06:55:30;;;;;;;20.88;6.35;;;;;;;0.81;73.35;100395.97;6080087;23;20034;-81
2023/01/27 06:57:57;;;;;;;20.13;7.68;;;;;;;0.86;73.09;100407.97;6053548;23;20022;-81
2023/01/27 07:00:24;;;;;;;17.30;6.93;;;;;;;0.81;73.20;100415.13;6056121;23;20030;-81
2023/01/27 07:02:54;;;;;;;16.75;6.85;;;;;;;0.79;73.40;100411.75;6035272;23;20021;-81
2023/01/27 07:05:20;;;;;;;27.83;8.25;;;;;;;0.78;73.57;100420.47;6036882;23;20028;-81
2023/01/27 07:07:47;;;;;;;17.38;7.13;;;;;;;0.73;73.46;100425.03;6056443;23;20023;-81
2023/01/27 07:10:15;;;;;;;15.90;6.35;;;;;;;0.74;73.24;100431.13;6057169;23;20032;-81
2023/01/27 07:12:42;;;;;;;18.75;6.93;;;;;;;0.69;72.94;100426.09;6080582;23;20037;-81
2023/01/27 07:15:09;;;;;;;14.32;5.32;;;;;;;0.75;72.57;100425.00;6080294;23;20022;-81
2023/01/27 07:17:36;;;;;;;18.73;6.40;;;;;;;0.72;72.45;100436.41;6035978;23;20098;-81
2023/01/27 07:20:04;;;;;;;13.00;5.15;;;;;;;0.78;72.33;100432.72;6057466;23;20619;-81
2023/01/27 07:22:30;;;;;;;15.85;5.85;;;;;;;0.74;71.84;100436.34;6054297;23;20018;-81
2023/01/27 07:24:57;;;;;;;14.15;5.32;;;;;;;0.75;71.89;100432.84;6082386;23;20030;-81
2023/01/27 07:27:24;;;;;;;17.85;6.22;;;;;;;0.71;71.42;100439.06;6014485;23;20010;-82
2023/01/27 07:29:51;;;;;;;13.50;5.28;;;;;;;0.69;71.90;100444.38;6082296;23;20465;-81
2023/01/27 07:32:18;;;;;;;14.63;5.53;;;;;;;0.74;71.97;100441.56;6038869;23;20054;-81
2023/01/27 07:34:44;;;;;;;15.02;5.38;;;;;;;0.69;71.93;100433.94;6081141;23;20026;-80
2023/01/27 07:37:12;;;;;;;14.95;5.07;;;;;;;0.70;72.23;100440.84;6080435;23;20025;-81
2023/01/27 07:39:38;;;;;;;16.50;5.88;;;;;;;0.70;72.47;100445.22;6055781;23;20096;-81
2023/01/27 07:42:05;;;;;;;20.83;6.40;;;;;;;0.74;72.47;100450.28;6057694;23;20315;-81
2023/01/27 07:44:35;;;;;;;13.90;5.63;;;;;;;0.77;72.24;100459.78;6091613;23;20123;-81
2023/01/27 07:47:02;;;;;;;16.85;5.95;;;;;;;0.79;72.15;100452.69;6114640;23;20081;-81
2023/01/27 07:49:28;;;;;;;18.30;6.10;;;;;;;0.78;72.01;100456.25;6116418;23;20022;-81
2023/01/27 07:51:55;;;;;;;14.07;5.65;;;;;;;0.82;72.25;100460.44;6067163;23;20029;-81
2023/01/27 07:54:21;;;;;;;12.57;5.40;;;;;;;0.85;72.30;100455.94;6090764;23;20446;-81
2023/01/27 07:56:48;;;;;;;13.15;5.38;;;;;;;0.85;72.39;100458.56;6067444;23;20084;-81
2023/01/27 07:59:15;;;;;;;20.15;7.38;;;;;;;0.85;72.68;100473.41;6115462;23;20100;-81
2023/01/27 08:01:42;;;;;;;20.58;7.53;;;;;;;0.83;72.35;100469.97;6090832;23;20018;-81
2023/01/27 08:04:09;;;;;;;20.33;8.55;;;;;;;0.88;72.86;100473.28;6115155;23;20037;-81
2023/01/27 08:06:38;;;;;;;20.58;8.15;;;;;;;0.86;73.22;100469.84;6115094;23;20033;-81
2023/01/27 08:09:05;;;;;;;20.67;8.05;;;;;;;0.88;73.31;100475.03;6090405;23;20021;-82
2023/01/27 08:11:32;;;;;;;21.05;7.85;;;;;;;0.90;73.14;100474.06;6090824;23;20022;-82
2023/01/27 08:13:59;;;;;;;21.67;8.98;;;;;;;0.93;73.23;100480.94;6067521;23;20036;-82
2023/01/27 08:16:25;;;;;;;23.98;9.75;;;;;;;0.88;73.13;100480.28;6090375;23;20036;-82
2023/01/27 08:18:53;;;;;;;22.48;8.20;;;;;;;0.98;72.52;100479.00;6091027;23;20072;-82
2023/01/27 08:21:20;;;;;;;23.50;7.78;;;;;;;0.91;72.78;100478.38;6115458;23;20033;-81
2023/01/27 08:23:47;;;;;;;16.58;7.93;;;;;;;0.95;72.37;100479.13;6066649;23;20328;-82
2023/01/27 08:26:13;;;;;;;21.70;8.48;;;;;;;0.95;72.78;100479.97;6066340;23;20033;-81
2023/01/27 08:28:40;;;;;;;25.13;8.15;;;;;;;0.85;72.72;100474.25;6114515;23;20034;-81
2023/01/27 08:31:13;;;;;;;20.10;8.30;;;;;;;0.85;72.94;100479.47;6114655;23;20081;-81
2023/01/27 08:33:41;;;;;;;16.42;6.57;;;;;;;0.91;72.93;100480.16;6114492;23;20458;-82
2023/01/27 08:36:13;;;;;;;18.77;7.32;;;;;;;0.96;72.64;100480.81;6090647;23;20096;-80
2023/01/27 08:38:40;;;;;;;17.30;7.18;;;;;;;1.01;72.43;100471.88;6115022;23;20026;-82
2023/01/27 08:41:12;;;;;;;19.73;8.05;;;;;;;1.00;73.16;100485.88;6090399;23;20346;-81
2023/01/27 08:43:39;;;;;;;19.55;7.78;;;;;;;0.94;73.09;100486.13;6064916;23;20806;-81
2023/01/27 08:46:06;;;;;;;19.00;6.93;;;;;;;0.99;73.26;100486.81;6067175;23;20021;-82
2023/01/27 08:48:34;;;;;;;21.88;8.23;;;;;;;0.96;73.27;100484.28;6113901;23;20104;-81
2023/01/27 08:51:02;;;;;;;18.92;6.68;;;;;;;0.96;73.14;100489.53;6114539;23;20122;-84
2023/01/27 08:53:29;;;;;;;17.88;7.18;;;;;;;0.92;73.08;100487.94;6066224;23;20446;-80
2023/01/27 08:55:57;;;;;;;18.50;8.18;;;;;;;0.91;72.86;100493.22;6115390;23;20024;-81
2023/01/27 08:58:24;;;;;;;19.65;7.38;;;;;;;0.94;73.20;100493.97;6089809;23;20454;-81
2023/01/27 09:00:50;;;;;;;21.40;9.43;;;;;;;0.97;72.88;100491.25;6115529;23;20032;-81
2023/01/27 09:03:17;;;;;;;17.30;6.57;;;;;;;0.94;73.20;100487.88;6093753;23;20354;-81
2023/01/27 09:05:46;;;;;;;18.63;7.32;;;;;;;1.01;73.08;100500.66;6075224;23;20030;-81
2023/01/27 09:08:14;;;;;;;19.40;8.20;;;;;;;1.03;72.85;100501.44;6068253;23;20036;-81
2023/01/27 09:10:41;;;;;;;23.50;7.93;;;;;;;0.99;72.90;100499.00;6098952;23;20551;-80
2023/01/27 09:13:08;;;;;;;19.80;7.80;;;;;;;0.98;72.74;100497.31;6090101;23;20030;-81
2023/01/27 09:15:36;;;;;;;20.58;7.55;;;;;;;0.92;73.22;100490.56;6090237;23;20024;-83
2023/01/27 09:18:03;;;;;;;18.98;7.68;;;;;;;1.00;73.55;100495.50;6113721;23;20030;-80
2023/01/27 09:20:33;;;;;;;20.05;7.32;;;;;;;1.01;73.49;100505.03;6115493;23;20132;-80
2023/01/27 09:23:01;;;;;;;16.58;6.43;;;;;;;0.99;73.00;100512.09;6091331;23;20022;-83
2023/01/27 09:25:27;;;;;;;15.45;5.93;;;;;;;0.92;73.09;100508.03;6090404;23;20343;-84
2023/01/27 09:27:55;;;;;;;16.63;6.22;;;;;;;0.94;73.43;100509.66;6065416;23;20113;-83
2023/01/27 09:30:24;;;;;;;15.10;6.07;;;;;;;1.02;73.70;100496.31;6091075;23;20026;-82
2023/01/27 09:32:50;;;;;;;19.23;6.70;;;;;;;1.06;73.37;100501.31;6067018;23;20094;-82
2023/01/27 09:35:18;;;;;;;14.30;5.53;;;;;;;1.06;72.85;100498.72;6066336;23;20022;-81
2023/01/27 09:37:56;;;;;;;13.95;5.68;;;;;;;1.01;72.53;100491.97;6089808;23;20458;-82
2023/01/27 09:40:32;;;;;;;12.18;5.20;;;;;;;1.05;72.01;100499.63;6066972;23;20022;-81
2023/01/27 09:43:14;;;;;;;18.20;5.70;;;;;;;1.10;72.70;100504.69;6064763;23;20022;-81
2023/01/27 09:45:43;;;;;;;18.75;6.55;;;;;;;1.11;73.09;100495.94;6084257;23;20022;-81
2023/01/27 09:48:35;;;;;;;14.32;5.90;;;;;;;1.10;72.89;100496.84;6070187;23;20451;-81
2023/01/27 09:51:22;;;;;;;13.18;5.32;;;;;;;1.09;72.27;100502.97;6022056;23;20032;-82
2023/01/27 09:54:15;;;;;;;14.77;5.35;;;;;;;1.14;72.55;100513.25;6080316;23;20030;-82
2023/01/27 09:56:48;;;;;;;12.65;5.40;;;;;;;1.18;72.74;100513.09;5959339;23;20029;-82
2023/01/27 09:59:49;;;;;;;10.68;4.20;;;;;;;1.21;72.90;100510.34;6063842;23;20022;-81
2023/01/27 10:02:28;;;;;;;12.32;5.53;;;;;;;1.31;72.09;100513.47;6067342;23;20024;-81
2023/01/27 10:05:06;;;;;;;12.75;4.72;;;;;;;1.35;71.78;100515.06;6064644;23;20028;-83
2023/01/27 10:07:48;;;;;;;11.65;4.60;;;;;;;1.26;71.84;100504.94;6090125;23;20025;-83
2023/01/27 10:10:15;;;;;;;13.13;5.18;;;;;;;1.32;72.08;100509.91;6018702;23;20110;-82
2023/01/27 10:13:12;;;;;;;13.10;5.20;;;;;;;1.25;71.91;100500.63;6065588;23;20402;-82
2023/01/27 10:15:47;;;;;;;12.07;3.90;;;;;;;1.22;71.22;100506.84;6016891;23;20351;-81
2023/01/27 10:18:51;;;;;;;9.23;4.38;;;;;;;1.20;71.64;100513.88;6089531;23;20451;-82
2023/01/27 10:21:39;;;;;;;10.35;4.63;;;;;;;1.26;71.96;100516.25;6003729;23;20026;-81
2023/01/27 10:24:23;;;;;;;12.98;4.60;;;;;;;1.22;71.95;100508.56;6042487;23;20119;-82
2023/01/27 10:26:54;;;;;;;10.95;4.00;;;;;;;1.33;72.19;100500.34;6036652;23;20399;-81
2023/01/27 10:29:46;;;;;;;9.63;4.07;;;;;;;1.30;71.94;100496.91;6057005;23;20118;-81
2023/01/27 10:32:57;;;;;;;9.18;4.10;;;;;;;1.23;71.34;100508.53;6022670;23;20696;-81
2023/01/27 10:35:35;;;;;;;9.00;3.92;;;;;;;1.21;71.87;100504.28;5887976;23;20088;-80
2023/01/27 10:38:11;;;;;;;8.15;3.38;;;;;;;1.24;71.76;100507.59;6033174;23;20073;-81
2023/01/27 10:40:49;;;;;;;9.55;3.72;;;;;;;1.25;72.06;100513.72;6055002;23;20026;-81
2023/01/27 10:43:34;;;;;;;9.80;3.88;;;;;;;1.21;71.31;100506.88;6038601;23;20100;-81
2023/01/27 10:46:33;;;;;;;8.32;3.72;;;;;;;1.29;71.44;100489.97;6040940;23;20030;-80
2023/01/27 10:49:22;;;;;;;7.63;3.85;;;;;;;1.21;71.86;100489.41;5962970;23;20066;-81
2023/01/27 10:51:51;;;;;;;10.85;4.40;;;;;;;1.33;71.89;100495.94;5993004;23;20475;-82
2023/01/27 10:54:25;;;;;;;10.32;3.65;;;;;;;1.27;71.64;100504.03;6080382;23;20022;-80
2023/01/27 10:57:24;;;;;;;9.35;4.38;;;;;;;1.18;71.17;100486.09;6011413;23;20018;-81
2023/01/27 11:00:14;;;;;;;8.20;4.20;;;;;;;1.24;71.93;100489.28;6004527;23;20035;-81
2023/01/27 11:03:13;;;;;;;10.63;4.40;;;;;;;1.28;72.23;100480.41;6010511;23;20056;-81
2023/01/27 11:05:45;;;;;;;7.20;3.33;;;;;;;1.30;71.58;100485.59;6036206;23;20447;-81
2023/01/27 11:08:17;;;;;;;12.77;4.05;;;;;;;1.27;72.21;100483.97;6035083;23;20028;-80
2023/01/27 11:13:33;;;;;;;10.45;4.13;;;;;;;1.38;71.76;100477.44;6012873;23;20022;-81
2023/01/27 11:16:00;;;;;;;8.90;3.78;;;;;;;1.39;72.17;100476.53;6059291;23;20048;-81
2023/01/27 11:18:29;;;;;;;9.48;3.70;;;;;;;1.42;71.22;100479.84;6058441;23;20028;-81
2023/01/27 11:21:06;;;;;;;7.85;3.50;;;;;;;1.39;71.47;100493.06;6079952;23;20045;-81
2023/01/27 11:23:41;;;;;;;10.82;2.90;;;;;;;1.41;71.05;100474.72;6064921;23;20018;-81
2023/01/27 11:26:29;;;;;;;7.03;2.83;;;;;;;1.41;71.37;100486.03;6039170;23;20036;-81
2023/01/27 11:29:22;;;;;;;5.93;3.05;;;;;;;1.37;70.93;100487.03;6042125;23;20017;-82
2023/01/27 11:32:27;;;;;;;8.85;3.20;;;;;;;1.32;70.64;100494.22;5977044;23;20462;-82
2023/01/27 11:34:59;;;;;;;10.07;4.70;;;;;;;1.33;71.49;100488.09;6006803;23;20030;-81
2023/01/27 11:37:31;;;;;;;9.20;3.72;;;;;;;1.39;70.48;100477.38;6089049;23;20025;-80
2023/01/27 11:39:58;;;;;;;7.60;3.83;;;;;;;1.32;71.21;100485.53;6017436;23;20024;-80
2023/01/27 11:42:30;;;;;;;12.05;4.20;;;;;;;1.23;71.70;100486.75;6118769;23;20030;-81
2023/01/27 11:44:57;;;;;;;10.23;4.13;;;;;;;1.32;71.37;100496.00;6082739;23;20342;-80
2023/01/27 11:47:28;;;;;;;9.00;3.17;;;;;;;1.33;71.30;100484.63;6113933;23;20097;-81
2023/01/27 11:49:55;;;;;;;8.77;3.38;;;;;;;1.41;71.08;100470.31;6042199;23;20018;-80
2023/01/27 11:52:25;;;;;;;11.32;4.47;;;;;;;1.38;71.30;100473.06;6088678;23;20431;-80
2023/01/27 11:55:06;;;;;;;10.18;3.53;;;;;;;1.39;71.41;100477.38;6064141;23;20021;-79
2023/01/27 11:57:35;;;;;;;8.35;3.97;;;;;;;1.37;70.95;100481.81;6064414;23;20089;-81
2023/01/27 12:00:09;;;;;;;13.43;4.90;;;;;;;1.38;71.08;100478.28;6064652;23;20024;-81
2023/01/27 12:03:06;;;;;;;14.35;4.32;;;;;;;1.34;71.53;100476.72;6089734;23;20029;-81
2023/01/27 12:05:34;;;;;;;8.00;3.60;;;;;;;1.32;71.72;100467.22;6028372;23;20014;-81
2023/01/27 12:08:03;;;;;;;12.57;4.95;;;;;;;1.37;71.79;100481.81;6113968;23;20509;-80